Time;durP1;ratioP1;P1;durP2;ratioP2;P2;SDS_P1;SDS_P2;PMS_P1;PMS_P2;Temp;Humidity;BMP_temperature;BMP_pressure;BME280_temperature;BME280_humidity;BME280_pressure;Samples;Min_cycle;Max_cycle;Signal;HPM_P1;HPM_P2
2021/03/02 00:01:16;;;;;;;23.90;9.02;;;1.00;86.80;;;;;;5026974;28;20261;-71
2021/03/02 00:03:42;;;;;;;;;;;0.90;86.50;;;;;;5027061;28;20029;-72
2021/03/02 00:06:08;;;;;;;18.38;9.13;;;0.90;87.30;;;;;;5026517;28;20140;-73
2021/03/02 00:08:38;;;;;;;16.27;7.70;;;0.90;87.30;;;;;;5025143;28;20040;-71
2021/03/02 00:11:04;;;;;;;16.65;8.60;;;0.80;87.00;;;;;;5026585;28;20029;-72
2021/03/02 00:13:31;;;;;;;15.55;9.23;;;0.80;87.10;;;;;;5026771;28;20399;-71
2021/03/02 00:16:03;;;;;;;16.83;9.00;;;0.80;87.20;;;;;;5026873;28;20103;-72
2021/03/02 00:18:42;;;;;;;17.63;8.35;;;0.80;87.70;;;;;;5025098;28;20021;-71
2021/03/02 00:21:20;;;;;;;16.65;8.52;;;0.80;86.90;;;;;;5026322;28;20425;-72
2021/03/02 00:23:53;;;;;;;16.40;7.88;;;0.80;87.10;;;;;;5026211;28;20108;-71
2021/03/02 00:26:23;;;;;;;16.83;8.07;;;0.80;87.30;;;;;;5024766;28;20033;-71
2021/03/02 00:28:51;;;;;;;16.95;8.57;;;0.80;87.60;;;;;;5026382;28;20112;-71
2021/03/02 00:31:17;;;;;;;22.38;11.32;;;0.90;87.50;;;;;;5025107;28;20033;-72
2021/03/02 00:33:46;;;;;;;17.00;9.23;;;0.80;87.40;;;;;;5025050;28;20494;-72
2021/03/02 00:36:12;;;;;;;16.45;8.18;;;0.80;87.60;;;;;;5026300;28;20025;-72
2021/03/02 00:38:38;;;;;;;22.38;9.90;;;0.90;87.80;;;;;;5024320;28;20406;-72
2021/03/02 00:41:04;;;;;;;17.60;8.48;;;0.80;87.80;;;;;;5024979;28;20092;-72
2021/03/02 00:43:29;;;;;;;;;;;0.80;88.00;;;;;;5024821;28;20080;-72
2021/03/02 00:45:55;;;;;;;21.05;9.00;;;0.80;87.70;;;;;;5026330;28;20452;-72
2021/03/02 00:48:21;;;;;;;;;;;0.80;87.80;;;;;;5026894;28;20041;-72
2021/03/02 00:50:46;;;;;;;21.50;9.70;;;0.80;88.10;;;;;;5025671;28;19905;-73
2021/03/02 00:53:12;;;;;;;;;;;0.80;88.20;;;;;;5026471;28;20132;-72
2021/03/02 00:55:37;;;;;;;23.83;10.50;;;0.80;87.80;;;;;;5028718;28;19909;-71
2021/03/02 00:58:03;;;;;;;;;;;0.80;87.80;;;;;;5029246;28;20413;-72
2021/03/02 01:00:29;;;;;;;20.48;8.68;;;0.70;88.10;;;;;;5030306;28;19912;-71
2021/03/02 01:02:54;;;;;;;;;;;0.60;88.00;;;;;;5030378;28;20101;-71
2021/03/02 01:05:20;;;;;;;22.70;9.98;;;0.60;87.90;;;;;;5030147;28;19911;-72
2021/03/02 01:07:45;;;;;;;;;;;0.60;88.00;;;;;;5029072;28;20124;-72
2021/03/02 01:10:12;;;;;;;19.63;9.63;;;0.60;88.20;;;;;;5029807;28;19905;-71
2021/03/02 01:12:38;;;;;;;21.02;10.00;;;0.60;88.40;;;;;;5028664;28;20414;-72
2021/03/02 01:15:04;;;;;;;;;;;0.50;88.90;;;;;;5030361;28;20021;-72
2021/03/02 01:17:30;;;;;;;20.75;9.52;;;0.50;88.80;;;;;;5029752;28;19912;-72
2021/03/02 01:19:56;;;;;;;;;;;0.60;88.80;;;;;;5029008;28;20060;-72
2021/03/02 01:22:22;;;;;;;19.23;9.23;;;0.50;88.70;;;;;;5029154;28;19909;-72
2021/03/02 01:24:47;;;;;;;;;;;0.50;88.80;;;;;;5030248;28;20029;-72
2021/03/02 01:27:13;;;;;;;18.90;8.65;;;0.50;88.50;;;;;;5029341;28;20606;-72
2021/03/02 01:29:39;;;;;;;18.23;8.90;;;0.40;88.50;;;;;;5028273;28;20409;-72
2021/03/02 01:32:05;;;;;;;;;;;0.40;88.80;;;;;;5028668;28;20029;-72
2021/03/02 01:34:32;;;;;;;23.67;9.75;;;0.40;89.10;;;;;;5029812;28;20357;-72
2021/03/02 01:36:58;;;;;;;30.67;12.10;;;0.50;89.20;;;;;;5028107;28;20033;-72
2021/03/02 01:39:23;;;;;;;;;;;0.50;89.00;;;;;;5029697;28;20083;-72
2021/03/02 01:41:50;;;;;;;17.50;8.38;;;0.50;89.00;;;;;;5027879;28;20541;-72
2021/03/02 01:44:16;;;;;;;24.52;10.30;;;0.50;89.10;;;;;;5029321;28;20057;-71
2021/03/02 01:46:43;;;;;;;;;;;0.50;89.40;;;;;;5029822;28;20034;-72
2021/03/02 01:49:08;;;;;;;23.52;9.32;;;0.40;88.60;;;;;;5028765;28;19956;-72
2021/03/02 01:51:34;;;;;;;;;;;0.40;88.80;;;;;;5029703;28;20079;-71
2021/03/02 01:54:00;;;;;;;19.70;10.38;;;0.30;88.90;;;;;;5029149;28;19905;-72
2021/03/02 01:56:25;;;;;;;;;;;0.30;89.40;;;;;;5029340;28;20664;-72
2021/03/02 01:58:51;;;;;;;92.57;43.17;;;0.30;89.30;;;;;;5028899;28;19959;-72
2021/03/02 02:01:17;;;;;;;;;;;0.40;89.20;;;;;;5028952;28;20041;-72
2021/03/02 02:03:45;;;;;;;20.73;10.27;;;0.40;89.30;;;;;;5028223;28;19913;-71
2021/03/02 02:06:25;;;;;;;19.02;8.65;;;0.30;89.30;;;;;;5028853;28;20131;-71
2021/03/02 02:09:03;;;;;;;20.83;11.18;;;0.30;89.30;;;;;;5028127;28;20409;-72
2021/03/02 02:11:40;;;;;;;48.38;27.38;;;0.30;89.50;;;;;;5029007;28;20806;-71
2021/03/02 02:14:38;;;;;;;35.83;17.50;;;0.30;89.30;;;;;;5027256;28;20148;-71
2021/03/02 02:17:09;;;;;;;29.58;14.27;;;0.30;89.30;;;;;;5035418;28;20387;-71
2021/03/02 02:19:49;;;;;;;29.60;13.15;;;0.20;89.30;;;;;;5028440;28;20045;-73
2021/03/02 02:22:33;;;;;;;27.02;13.75;;;0.20;89.50;;;;;;5028120;28;20017;-72
2021/03/02 02:25:20;;;;;;;28.42;13.32;;;0.20;89.80;;;;;;5028734;28;20772;-71
2021/03/02 02:27:49;;;;;;;29.38;15.70;;;0.10;89.90;;;;;;5028635;28;20041;-72
2021/03/02 02:30:17;;;;;;;24.20;13.52;;;0.10;90.00;;;;;;5027699;28;20068;-72
2021/03/02 02:32:45;;;;;;;27.60;13.55;;;0.10;90.10;;;;;;5028167;28;20030;-72
2021/03/02 02:35:13;;;;;;;26.23;13.23;;;0.20;90.10;;;;;;5026991;28;20087;-72
2021/03/02 02:37:39;;;;;;;24.75;12.18;;;0.10;90.00;;;;;;5028216;28;20041;-71
2021/03/02 02:40:07;;;;;;;23.02;12.52;;;0.10;90.00;;;;;;5028626;28;20052;-70
2021/03/02 02:42:33;;;;;;;23.10;12.02;;;0.10;90.00;;;;;;5026627;28;20064;-72
2021/03/02 02:45:00;;;;;;;27.25;14.60;;;0.10;90.00;;;;;;5028475;28;20021;-72
2021/03/02 02:47:26;;;;;;;25.80;14.00;;;0.10;89.90;;;;;;5027701;28;20061;-72
2021/03/02 02:49:53;;;;;;;28.92;14.38;;;0.10;90.00;;;;;;5028191;28;20051;-72
2021/03/02 02:52:19;;;;;;;26.80;12.75;;;0.20;90.20;;;;;;5027951;28;20078;-72
2021/03/02 02:54:46;;;;;;;33.90;14.00;;;0.20;90.10;;;;;;5026238;28;20029;-72
2021/03/02 02:57:16;;;;;;;35.00;16.90;;;0.10;90.10;;;;;;5027743;28;20044;-71
2021/03/02 02:59:46;;;;;;;42.95;17.92;;;0.10;90.00;;;;;;5028072;28;20545;-72
2021/03/02 03:02:19;;;;;;;36.42;15.40;;;0.10;90.00;;;;;;5027674;28;20875;-72
2021/03/02 03:04:55;;;;;;;31.48;14.70;;;0.10;90.00;;;;;;5027450;28;20083;-72
2021/03/02 03:07:33;;;;;;;30.23;12.60;;;0.00;90.10;;;;;;5026413;28;20076;-72
2021/03/02 03:10:01;;;;;;;27.45;12.43;;;0.00;90.20;;;;;;5027907;28;20017;-72
2021/03/02 03:12:28;;;;;;;29.63;12.63;;;0.00;90.20;;;;;;5027663;28;20048;-72
2021/03/02 03:14:59;;;;;;;31.92;13.60;;;-0.10;90.30;;;;;;5027405;28;20022;-72
2021/03/02 03:17:30;;;;;;;30.08;13.60;;;-0.10;90.20;;;;;;5026107;28;20032;-72
2021/03/02 03:19:57;;;;;;;31.83;15.63;;;-0.10;90.20;;;;;;5025785;28;20121;-72
2021/03/02 03:22:23;;;;;;;33.50;15.23;;;-0.10;90.30;;;;;;5027701;28;20025;-72
2021/03/02 03:24:49;;;;;;;39.05;17.05;;;-0.10;90.30;;;;;;5027246;28;20561;-72
2021/03/02 03:27:16;;;;;;;;;;;-0.10;90.30;;;;;;5028011;28;20137;-71
2021/03/02 03:29:43;;;;;;;31.10;13.85;;;-0.10;90.30;;;;;;5027318;28;19959;-71
2021/03/02 03:32:10;;;;;;;29.85;13.45;;;-0.10;90.20;;;;;;5026135;28;20033;-73
2021/03/02 03:34:38;;;;;;;28.13;12.75;;;-0.10;90.20;;;;;;5026845;28;20021;-72
2021/03/02 03:37:04;;;;;;;24.52;11.95;;;-0.10;90.10;;;;;;5027213;28;20025;-71
2021/03/02 03:39:30;;;;;;;;;;;-0.10;90.10;;;;;;5026293;28;20409;-71
2021/03/02 03:41:55;;;;;;;26.65;12.30;;;-0.10;90.10;;;;;;5027133;28;19912;-71
2021/03/02 03:44:21;;;;;;;;;;;-0.10;90.00;;;;;;5027773;28;20072;-72
2021/03/02 03:46:47;;;;;;;35.03;14.57;;;-0.10;90.10;;;;;;5027003;28;19917;-72
2021/03/02 03:49:12;;;;;;;;;;;-0.10;90.20;;;;;;5027067;28;20029;-72
2021/03/02 03:51:40;;;;;;;33.92;14.35;;;-0.10;90.30;;;;;;5026959;28;19962;-72
2021/03/02 03:54:07;;;;;;;30.50;12.90;;;-0.10;90.50;;;;;;5025309;28;20109;-71
2021/03/02 03:56:34;;;;;;;30.80;13.05;;;-0.10;90.50;;;;;;5026918;28;20086;-72
2021/03/02 03:59:02;;;;;;;27.65;12.68;;;0.00;90.40;;;;;;5026825;28;20051;-72
2021/03/02 04:01:28;;;;;;;33.72;14.18;;;0.00;90.40;;;;;;5027046;28;20224;-73
2021/03/02 04:03:54;;;;;;;;;;;-0.10;90.30;;;;;;5026669;28;20502;-72
2021/03/02 04:06:20;;;;;;;27.38;12.23;;;-0.10;90.30;;;;;;5026834;28;19972;-72
2021/03/02 04:08:46;;;;;;;30.27;13.73;;;-0.10;90.30;;;;;;5026328;28;20425;-71
2021/03/02 04:11:12;;;;;;;;;;;-0.10;90.20;;;;;;5027300;28;20025;-71
2021/03/02 04:13:37;;;;;;;21.27;9.88;;;-0.10;90.20;;;;;;5025350;28;19909;-73
2021/03/02 04:16:03;;;;;;;;;;;-0.10;90.20;;;;;;5027163;28;20044;-71
2021/03/02 04:18:29;;;;;;;15.43;8.07;;;-0.10;90.30;;;;;;5026683;28;20007;-72
2021/03/02 04:20:55;;;;;;;16.52;8.35;;;0.00;90.20;;;;;;5025974;28;20402;-72
2021/03/02 04:23:21;;;;;;;23.15;10.30;;;0.00;90.10;;;;;;5024901;28;20026;-71
2021/03/02 04:25:47;;;;;;;;;;;-0.10;89.90;;;;;;5025731;28;20120;-72
2021/03/02 04:28:13;;;;;;;30.25;10.95;;;-0.10;89.80;;;;;;5025847;28;19909;-72
2021/03/02 04:30:38;;;;;;;;;;;-0.20;90.00;;;;;;5026877;28;20477;-72
2021/03/02 04:33:05;;;;;;;21.27;9.93;;;-0.20;89.80;;;;;;5026748;28;19905;-73
2021/03/02 04:35:31;;;;;;;17.17;9.40;;;-0.20;89.80;;;;;;5025641;28;20048;-72
2021/03/02 04:37:56;;;;;;;;;;;-0.20;89.70;;;;;;5026419;28;20056;-73
2021/03/02 04:40:22;;;;;;;18.45;9.38;;;-0.30;89.70;;;;;;5026461;28;20377;-70
2021/03/02 04:42:47;;;;;;;;;;;-0.30;89.80;;;;;;5026197;28;20075;-71
2021/03/02 04:45:14;;;;;;;16.70;9.32;;;-0.30;90.00;;;;;;5025815;28;19962;-71
2021/03/02 04:47:44;;;;;;;17.02;7.82;;;-0.30;90.00;;;;;;5024846;28;20233;-72
2021/03/02 04:50:10;;;;;;;24.90;12.10;;;-0.40;90.10;;;;;;5024354;28;20036;-72
2021/03/02 04:52:36;;;;;;;16.08;8.00;;;-0.40;90.10;;;;;;5026068;28;20030;-72
2021/03/02 04:55:03;;;;;;;;;;;-0.40;90.10;;;;;;5026664;28;20135;-72
2021/03/02 04:57:28;;;;;;;48.22;24.23;;;-0.40;90.20;;;;;;5025997;28;19916;-73
2021/03/02 04:59:54;;;;;;;;;;;-0.40;90.40;;;;;;5027289;28;20025;-72
2021/03/02 05:02:19;;;;;;;50.17;24.80;;;-0.40;90.40;;;;;;5025993;28;19905;-72
2021/03/02 05:04:45;;;;;;;;;;;-0.30;90.60;;;;;;5026134;28;20029;-71
2021/03/02 05:07:11;;;;;;;56.03;26.13;;;-0.30;90.60;;;;;;5024623;28;20296;-72
2021/03/02 05:09:36;;;;;;;;;;;-0.20;90.40;;;;;;5026235;28;20389;-72
2021/03/02 05:12:02;;;;;;;108.35;42.92;;;-0.30;90.20;;;;;;5026028;28;19905;-71
2021/03/02 05:14:28;;;;;;;;;;;-0.20;90.30;;;;;;5026721;28;20031;-71
2021/03/02 05:16:53;;;;;;;47.30;20.88;;;-0.20;90.20;;;;;;5025735;28;20599;-72
2021/03/02 05:19:19;;;;;;;;;;;-0.30;90.20;;;;;;5026073;28;20033;-70
2021/03/02 05:21:44;;;;;;;54.17;23.75;;;-0.20;90.20;;;;;;5024746;28;19998;-72
2021/03/02 05:24:10;;;;;;;;;;;-0.30;90.10;;;;;;5026041;28;20429;-71
2021/03/02 05:26:36;;;;;;;59.55;20.98;;;-0.30;90.10;;;;;;5023993;28;19924;-71
2021/03/02 05:29:01;;;;;;;;;;;-0.30;90.30;;;;;;5026328;28;20477;-72
2021/03/02 05:31:27;;;;;;;32.65;15.73;;;-0.30;90.30;;;;;;5025588;28;20357;-72
2021/03/02 05:33:53;;;;;;;;;;;-0.10;90.50;;;;;;5024378;28;20025;-72
2021/03/02 05:36:18;;;;;;;50.80;15.68;;;-0.10;90.20;;;;;;5024506;28;19913;-72
2021/03/02 05:38:44;;;;;;;;;;;-0.10;90.10;;;;;;5026725;28;20030;-71
2021/03/02 05:41:10;;;;;;;31.85;14.93;;;-0.10;90.00;;;;;;5029971;28;20332;-72
2021/03/02 05:43:43;;;;;;;31.73;13.63;;;-0.10;90.10;;;;;;5028833;28;20942;-71
2021/03/02 05:46:10;;;;;;;26.95;14.75;;;0.00;90.00;;;;;;5029254;28;20076;-71
2021/03/02 05:48:40;;;;;;;30.75;14.68;;;0.10;90.00;;;;;;5028699;28;20025;-72
2021/03/02 05:51:06;;;;;;;32.55;15.95;;;0.10;89.80;;;;;;5027827;28;20455;-72
2021/03/02 05:53:33;;;;;;;30.42;14.63;;;0.30;89.40;;;;;;5027412;28;20391;-72
2021/03/02 05:55:59;;;;;;;35.35;17.95;;;0.50;89.30;;;;;;5028985;28;20041;-72
2021/03/02 05:58:24;;;;;;;;;;;0.70;87.90;;;;;;5029231;28;20030;-73
2021/03/02 06:00:50;;;;;;;35.03;17.58;;;0.80;87.20;;;;;;5029004;28;19936;-71
2021/03/02 06:03:16;;;;;;;;;;;1.00;87.00;;;;;;5027742;28;20895;-72
2021/03/02 06:05:41;;;;;;;35.90;18.73;;;1.20;85.90;;;;;;5028736;28;19920;-71
2021/03/02 06:08:07;;;;;;;;;;;1.40;85.10;;;;;;5029363;28;20037;-71
2021/03/02 06:10:33;;;;;;;44.20;21.55;;;1.50;84.20;;;;;;5028368;28;19996;-71
2021/03/02 06:13:00;;;;;;;48.85;24.95;;;1.60;83.70;;;;;;5029030;28;20037;-71
2021/03/02 06:15:28;;;;;;;50.40;24.10;;;1.80;83.60;;;;;;5027185;28;20612;-71
2021/03/02 06:18:14;;;;;;;43.70;21.00;;;1.90;82.40;;;;;;5028715;28;20502;-71
2021/03/02 06:20:41;;;;;;;48.22;24.63;;;1.90;82.50;;;;;;5028051;28;20025;-72
2021/03/02 06:23:28;;;;;;;48.20;23.10;;;2.30;82.60;;;;;;5027393;28;20030;-69
2021/03/02 06:26:15;;;;;;;50.47;28.55;;;2.70;80.40;;;;;;5028530;28;20029;-67
2021/03/02 06:28:42;;;;;;;43.75;23.67;;;3.10;79.60;;;;;;5028575;28;20030;-73
2021/03/02 06:31:37;;;;;;;42.70;22.17;;;3.70;78.50;;;;;;5027432;28;20148;-70
2021/03/02 06:34:12;;;;;;;48.45;26.77;;;4.10;75.20;;;;;;5026566;28;20025;-71
2021/03/02 06:36:54;;;;;;;51.65;24.92;;;4.70;73.50;;;;;;5028542;28;20040;-73
2021/03/02 06:39:41;;;;;;;37.55;18.42;;;5.20;71.30;;;;;;5028436;28;20026;-71
2021/03/02 06:42:10;;;;;;;;;;;5.80;69.50;;;;;;5027333;28;20033;-70
2021/03/02 06:44:36;;;;;;;44.28;19.65;;;6.40;67.80;;;;;;5028182;28;19990;-70
2021/03/02 06:47:02;;;;;;;34.10;16.02;;;7.00;65.90;;;;;;5027965;28;20125;-70
2021/03/02 06:49:36;;;;;;;;;;;7.40;64.00;;;;;;5027992;28;20105;-70
2021/03/02 06:52:11;;;;;;;22.73;11.32;;;7.90;62.10;;;;;;5026619;28;19909;-71
2021/03/02 06:54:37;;;;;;;26.15;10.82;;;8.60;60.50;;;;;;5027916;28;20034;-70
2021/03/02 06:57:03;;;;;;;;;;;9.20;59.00;;;;;;5028413;28;20056;-70
2021/03/02 06:59:29;;;;;;;20.80;10.38;;;9.70;56.10;;;;;;5027772;28;20399;-71
2021/03/02 07:01:55;;;;;;;;;;;10.20;55.70;;;;;;5028167;28;20104;-71
2021/03/02 07:04:26;;;;;;;20.88;12.98;;;10.60;53.50;;;;;;5027819;28;20004;-70
2021/03/02 07:06:56;;;;;;;23.88;12.32;;;11.10;52.80;;;;;;5025862;28;20111;-69
2021/03/02 07:09:22;;;;;;;22.33;12.70;;;11.50;51.00;;;;;;5025959;28;20025;-71
2021/03/02 07:11:48;;;;;;;17.90;11.80;;;12.00;50.20;;;;;;5026417;28;20041;-71
2021/03/02 07:14:15;;;;;;;28.85;13.90;;;12.50;48.20;;;;;;5027819;28;20383;-70
2021/03/02 07:16:46;;;;;;;23.80;13.13;;;12.90;47.70;;;;;;5027013;28;20494;-71
2021/03/02 07:19:17;;;;;;;21.92;13.77;;;13.20;45.80;;;;;;5027327;28;20785;-71
2021/03/02 07:21:44;;;;;;;22.50;13.85;;;13.60;44.90;;;;;;5027810;28;20036;-71
2021/03/02 07:24:13;;;;;;;26.83;15.57;;;14.00;43.90;;;;;;5027182;28;20030;-71
2021/03/02 07:26:47;;;;;;;25.83;13.90;;;14.20;42.70;;;;;;5027359;28;20091;-71
2021/03/02 07:29:13;;;;;;;19.63;13.65;;;14.50;42.20;;;;;;5026008;28;20029;-71
2021/03/02 07:31:40;;;;;;;20.70;14.20;;;14.70;41.40;;;;;;5025967;28;20499;-71
2021/03/02 07:34:08;;;;;;;20.95;15.55;;;14.90;41.00;;;;;;5026783;28;20124;-71
2021/03/02 07:36:36;;;;;;;20.92;14.18;;;15.00;41.20;;;;;;5025900;28;20036;-71
2021/03/02 07:39:19;;;;;;;26.80;15.32;;;15.30;41.00;;;;;;5026775;28;20120;-71
2021/03/02 07:41:46;;;;;;;20.90;13.15;;;15.40;39.30;;;;;;5025947;28;20119;-71
2021/03/02 07:44:12;;;;;;;21.83;15.95;;;15.50;39.50;;;;;;5025449;28;20544;-71
2021/03/02 07:46:39;;;;;;;16.33;11.85;;;15.60;39.80;;;;;;5025191;28;20039;-70
2021/03/02 07:49:23;;;;;;;19.88;12.25;;;15.50;39.50;;;;;;5027261;28;20045;-71
2021/03/02 07:52:02;;;;;;;21.52;13.57;;;15.60;39.00;;;;;;5026991;28;20064;-74
2021/03/02 07:54:29;;;;;;;21.75;13.70;;;15.80;39.40;;;;;;5026643;28;20508;-73
2021/03/02 07:57:17;;;;;;;22.80;13.40;;;15.80;39.30;;;;;;5025432;28;20025;-73
2021/03/02 08:00:06;;;;;;;19.08;12.75;;;15.70;39.70;;;;;;5027079;28;20552;-72
2021/03/02 08:02:32;;;;;;;17.67;11.73;;;15.90;39.90;;;;;;5025847;28;20029;-72
2021/03/02 08:05:28;;;;;;;21.00;14.57;;;15.60;40.20;;;;;;5024692;28;20025;-72
2021/03/02 08:08:26;;;;;;;19.08;12.68;;;15.60;40.60;;;;;;5025822;28;20060;-72
2021/03/02 08:11:01;;;;;;;16.58;11.48;;;15.40;40.70;;;;;;5035349;28;20049;-72
2021/03/02 08:13:37;;;;;;;18.88;12.05;;;15.70;40.90;;;;;;5024523;28;20635;-72
2021/03/02 08:16:05;;;;;;;16.60;12.20;;;16.10;40.40;;;;;;5025751;28;20037;-73
2021/03/02 08:18:33;;;;;;;17.63;11.98;;;16.40;39.50;;;;;;5024578;28;20025;-71
2021/03/02 08:21:09;;;;;;;22.85;12.43;;;16.60;39.00;;;;;;5026395;28;20033;-72
2021/03/02 08:23:56;;;;;;;15.63;10.68;;;16.70;38.90;;;;;;5026776;28;20018;-70
2021/03/02 08:26:35;;;;;;;16.33;11.23;;;17.10;38.30;;;;;;5026468;28;20041;-69
2021/03/02 08:29:17;;;;;;;19.73;12.75;;;17.20;38.00;;;;;;5026720;28;20466;-70
2021/03/02 08:31:45;;;;;;;15.48;11.15;;;17.30;38.10;;;;;;5026028;28;20527;-70
2021/03/02 08:34:13;;;;;;;20.02;11.32;;;17.40;37.90;;;;;;5024089;28;20030;-71
2021/03/02 08:36:40;;;;;;;18.35;10.93;;;17.70;37.00;;;;;;5026194;28;20171;-70
2021/03/02 08:39:14;;;;;;;16.35;10.70;;;17.70;37.40;;;;;;5024585;28;20056;-70
2021/03/02 08:41:45;;;;;;;17.77;11.40;;;18.00;37.40;;;;;;5025120;28;20088;-70
2021/03/02 08:44:20;;;;;;;15.15;9.90;;;18.40;36.40;;;;;;5026131;28;20593;-71
2021/03/02 08:46:51;;;;;;;13.98;10.10;;;18.60;36.10;;;;;;5024540;28;20179;-71
2021/03/02 08:49:17;;;;;;;17.02;12.32;;;18.80;34.80;;;;;;5026220;28;20029;-71
2021/03/02 08:51:43;;;;;;;14.65;11.07;;;18.70;35.50;;;;;;5026132;28;20033;-71
2021/03/02 08:54:09;;;;;;;15.32;11.25;;;18.70;36.10;;;;;;5024809;28;20044;-71
2021/03/02 08:56:35;;;;;;;19.20;11.38;;;19.00;35.60;;;;;;5025702;28;20116;-70
2021/03/02 08:59:06;;;;;;;18.48;12.18;;;19.30;35.00;;;;;;5025883;28;20148;-71
2021/03/02 09:01:34;;;;;;;16.88;11.93;;;19.30;34.60;;;;;;5024757;28;20025;-70
2021/03/02 09:04:09;;;;;;;18.10;12.60;;;19.20;34.90;;;;;;5025566;28;20053;-70
2021/03/02 09:06:35;;;;;;;16.55;12.07;;;19.00;34.80;;;;;;5024647;28;20064;-70
2021/03/02 09:09:14;;;;;;;16.33;11.88;;;18.90;34.90;;;;;;5024613;28;20026;-70
2021/03/02 09:11:41;;;;;;;19.02;12.18;;;18.90;35.30;;;;;;5024782;28;20029;-70
2021/03/02 09:14:21;;;;;;;20.85;11.90;;;18.90;35.50;;;;;;5026414;28;20025;-70
2021/03/02 09:16:48;;;;;;;30.65;12.65;;;19.00;35.30;;;;;;5029684;28;20029;-70
2021/03/02 09:19:26;;;;;;;17.60;11.93;;;18.90;36.10;;;;;;5029499;28;20057;-70
2021/03/02 09:22:03;;;;;;;19.77;12.25;;;19.10;35.90;;;;;;5028459;28;20100;-70
2021/03/02 09:24:31;;;;;;;17.48;11.38;;;19.00;35.60;;;;;;5029442;28;20095;-70
2021/03/02 09:27:08;;;;;;;18.85;12.80;;;19.10;35.70;;;;;;5028012;28;20119;-70
2021/03/02 09:29:43;;;;;;;18.35;12.07;;;19.10;35.90;;;;;;5029690;28;20100;-70
2021/03/02 09:32:10;;;;;;;23.65;14.45;;;19.20;35.70;;;;;;5028318;28;20038;-70
2021/03/02 09:34:42;;;;;;;16.73;12.63;;;19.30;35.70;;;;;;5028966;28;20033;-70
2021/03/02 09:37:16;;;;;;;22.25;13.50;;;19.50;35.70;;;;;;5029245;28;20111;-70
2021/03/02 09:40:03;;;;;;;18.02;12.10;;;19.70;34.80;;;;;;5029904;28;20053;-70
2021/03/02 09:42:32;;;;;;;;;;;19.90;33.80;;;;;;5028255;28;20064;-70
2021/03/02 09:44:59;;;;;;;24.20;12.30;;;19.80;34.70;;;;;;5029131;28;20408;-70
2021/03/02 09:47:33;;;;;;;20.23;12.95;;;20.00;34.10;;;;;;5028472;28;20069;-70
2021/03/02 09:50:05;;;;;;;18.30;12.52;;;20.00;34.60;;;;;;5029441;28;20025;-70
2021/03/02 09:52:35;;;;;;;16.85;12.82;;;20.10;34.10;;;;;;5029393;28;20018;-70
2021/03/02 09:55:16;;;;;;;21.02;12.65;;;20.20;33.80;;;;;;5027447;28;20116;-70
2021/03/02 09:58:06;;;;;;;15.90;12.43;;;20.30;33.30;;;;;;5029252;28;20561;-70
2021/03/02 10:00:37;;;;;;;19.38;11.70;;;20.30;32.20;;;;;;5029004;28;20204;-69
2021/03/02 10:03:18;;;;;;;17.33;11.90;;;20.70;32.70;;;;;;5028509;28;20083;-69
2021/03/02 10:05:58;;;;;;;17.58;13.38;;;20.80;32.10;;;;;;5027356;28;20084;-70
2021/03/02 10:08:27;;;;;;;18.35;12.23;;;20.40;33.10;;;;;;5028862;28;20797;-71
2021/03/02 10:11:15;;;;;;;15.00;11.25;;;20.30;33.60;;;;;;5029040;28;20037;-69
2021/03/02 10:13:47;;;;;;;24.17;11.88;;;20.40;32.10;;;;;;5027048;28;20037;-71
2021/03/02 10:16:24;;;;;;;19.23;11.90;;;20.20;32.50;;;;;;5028038;28;20033;-70
2021/03/02 10:19:21;;;;;;;18.33;10.95;;;20.10;33.30;;;;;;5026827;28;20022;-71
2021/03/02 10:21:52;;;;;;;20.17;11.03;;;20.00;33.20;;;;;;5026969;28;20025;-71
2021/03/02 10:24:19;;;;;;;17.80;13.32;;;20.10;32.40;;;;;;5027947;28;20033;-72
2021/03/02 10:26:45;;;;;;;26.20;11.40;;;19.80;33.20;;;;;;5028014;28;20030;-70
2021/03/02 10:29:11;;;;;;;16.48;11.98;;;19.70;33.50;;;;;;5026897;28;20544;-71
2021/03/02 10:31:37;;;;;;;18.48;11.70;;;19.70;33.90;;;;;;5027891;28;20033;-71
2021/03/02 10:34:11;;;;;;;17.67;11.57;;;19.90;32.80;;;;;;5028630;28;20033;-70
2021/03/02 10:36:42;;;;;;;16.40;11.57;;;19.70;34.80;;;;;;5027952;28;20060;-72
2021/03/02 10:39:15;;;;;;;19.27;12.88;;;19.10;35.30;;;;;;5028650;28;20045;-71
2021/03/02 10:41:43;;;;;;;15.73;11.48;;;18.50;35.90;;;;;;5026977;28;20025;-69
2021/03/02 10:44:09;;;;;;;18.02;12.55;;;17.90;36.60;;;;;;5028084;28;20541;-72
2021/03/02 10:46:35;;;;;;;14.43;9.20;;;17.30;37.30;;;;;;5027762;28;20417;-70
2021/03/02 10:49:02;;;;;;;23.60;11.05;;;16.70;38.10;;;;;;5028341;28;20025;-70
2021/03/02 10:51:29;;;;;;;19.67;11.63;;;16.30;39.70;;;;;;5026620;28;20025;-70
2021/03/02 10:53:55;;;;;;;18.65;12.23;;;15.80;40.40;;;;;;5027998;28;20032;-70
2021/03/02 10:56:21;;;;;;;23.92;15.55;;;15.40;41.40;;;;;;5025761;28;20028;-69
2021/03/02 10:58:48;;;;;;;19.70;8.93;;;15.10;42.10;;;;;;5027927;28;20037;-70
2021/03/02 11:01:14;;;;;;;11.85;7.55;;;15.00;42.10;;;;;;5026603;28;20557;-71
2021/03/02 11:03:42;;;;;;;13.88;8.57;;;14.90;41.80;;;;;;5027414;28;20086;-71
2021/03/02 11:06:09;;;;;;;12.48;6.82;;;14.80;41.60;;;;;;5027826;28;20067;-72
2021/03/02 11:08:35;;;;;;;15.93;6.43;;;14.70;41.60;;;;;;5027731;28;20120;-70
2021/03/02 11:11:01;;;;;;;;;;;14.60;41.50;;;;;;5028388;28;20474;-71
2021/03/02 11:13:26;;;;;;;10.30;5.90;;;14.60;41.20;;;;;;5028026;28;19905;-72
2021/03/02 11:15:52;;;;;;;;;;;14.40;41.30;;;;;;5027851;28;20052;-72
2021/03/02 11:18:17;;;;;;;11.57;5.75;;;14.30;41.20;;;;;;5027608;28;19966;-72
2021/03/02 11:20:44;;;;;;;;;;;14.30;41.20;;;;;;5027816;28;20100;-71
2021/03/02 11:23:11;;;;;;;11.00;5.28;;;14.30;41.40;;;;;;5027256;28;19912;-73
2021/03/02 11:25:38;;;;;;;8.45;5.22;;;14.20;41.20;;;;;;5025670;28;20083;-73
2021/03/02 11:28:04;;;;;;;11.52;4.90;;;14.30;41.60;;;;;;5026915;28;20025;-72
2021/03/02 11:30:30;;;;;;;11.18;5.20;;;14.20;41.30;;;;;;5026250;28;20060;-73
2021/03/02 11:32:56;;;;;;;;;;;14.20;41.70;;;;;;5025329;28;20088;-72
2021/03/02 11:35:21;;;;;;;7.75;4.75;;;14.30;41.80;;;;;;5023900;28;19928;-73
2021/03/02 11:37:47;;;;;;;;;;;14.30;41.70;;;;;;5024248;28;20549;-73
2021/03/02 11:40:15;;;;;;;8.73;4.75;;;14.40;40.60;;;;;;5024336;28;20369;-72
2021/03/02 11:42:42;;;;;;;7.78;4.78;;;14.40;40.90;;;;;;5021647;28;20041;-72
2021/03/02 11:45:10;;;;;;;8.82;4.80;;;14.50;40.80;;;;;;5023169;28;20053;-71
2021/03/02 11:47:36;;;;;;;7.95;3.90;;;14.40;40.70;;;;;;5025800;28;20461;-72
2021/03/02 11:50:04;;;;;;;8.93;3.88;;;14.60;39.70;;;;;;5025844;28;20124;-73
2021/03/02 11:52:30;;;;;;;8.43;4.45;;;14.60;39.50;;;;;;5025734;28;20037;-73
2021/03/02 11:54:56;;;;;;;6.88;4.07;;;14.60;40.00;;;;;;5023899;28;20035;-72
2021/03/02 11:57:22;;;;;;;;;;;14.60;40.00;;;;;;5025496;28;20092;-72
2021/03/02 11:59:48;;;;;;;8.30;3.95;;;14.60;40.00;;;;;;5028886;28;20024;-71
2021/03/02 12:02:13;;;;;;;;;;;14.70;39.70;;;;;;5026361;28;20748;-71
2021/03/02 12:04:40;;;;;;;7.00;3.20;;;14.70;39.30;;;;;;5025015;28;19963;-71
2021/03/02 12:07:06;;;;;;;6.18;3.38;;;14.70;38.40;;;;;;5025934;28;20034;-71
2021/03/02 12:09:32;;;;;;;9.65;3.83;;;14.70;38.30;;;;;;5025454;28;20407;-72
2021/03/02 12:11:57;;;;;;;;;;;14.70;38.30;;;;;;5026321;28;20045;-71
2021/03/02 12:14:23;;;;;;;11.95;3.83;;;14.70;38.60;;;;;;5023369;28;19913;-72
2021/03/02 12:16:49;;;;;;;;;;;14.70;38.30;;;;;;5025890;28;20065;-72
2021/03/02 12:19:15;;;;;;;9.68;3.70;;;14.70;39.10;;;;;;5025880;28;20249;-71
2021/03/02 12:21:40;;;;;;;;;;;14.70;38.10;;;;;;5025822;28;20034;-71
2021/03/02 12:24:06;;;;;;;7.32;3.35;;;14.80;38.70;;;;;;5024167;28;19923;-71
2021/03/02 12:26:32;;;;;;;;;;;14.70;38.40;;;;;;5024341;28;20071;-72
2021/03/02 12:28:58;;;;;;;6.13;3.10;;;14.70;38.90;;;;;;5023491;28;20404;-71
2021/03/02 12:31:24;;;;;;;;;;;14.70;38.10;;;;;;5025886;28;20429;-71
2021/03/02 12:33:49;;;;;;;7.00;3.47;;;14.70;37.50;;;;;;5025057;28;19913;-71
2021/03/02 12:36:15;;;;;;;;;;;14.80;38.10;;;;;;5025648;28;20045;-72
2021/03/02 12:38:40;;;;;;;9.80;2.95;;;14.80;38.00;;;;;;5025399;28;19955;-72
2021/03/02 12:41:06;;;;;;;;;;;14.80;37.60;;;;;;5024138;28;20033;-72
2021/03/02 12:43:31;;;;;;;14.80;9.98;;;14.90;37.40;;;;;;5025084;28;19921;-71
2021/03/02 12:45:57;;;;;;;;;;;14.90;36.80;;;;;;5025676;28;20053;-70
2021/03/02 12:48:23;;;;;;;5.70;2.80;;;15.00;36.40;;;;;;5026425;28;19921;-72
2021/03/02 12:50:48;;;;;;;5.88;2.85;;;15.00;36.40;;;;;;5030395;28;20494;-72
2021/03/02 12:53:14;;;;;;;8.65;2.65;;;15.00;37.50;;;;;;5030331;28;20133;-72
2021/03/02 12:55:41;;;;;;;;;;;15.00;37.00;;;;;;5032184;28;20044;-71
2021/03/02 12:58:08;;;;;;;7.00;3.05;;;15.00;37.60;;;;;;5031814;28;19921;-71
2021/03/02 13:00:34;;;;;;;7.40;2.88;;;15.10;38.00;;;;;;5031439;28;20037;-72
2021/03/02 13:03:00;;;;;;;;;;;15.10;37.60;;;;;;5031910;28;20247;-71